createdAt,value
2023-04-03T00:00:36.046Z,4.18
2023-04-03T00:02:09.640Z,4.00
2023-04-03T00:03:43.561Z,3.50
2023-04-03T00:05:17.254Z,8.57
2023-04-03T00:06:50.486Z,5.38
2023-04-03T00:08:25.001Z,6.65
2023-04-03T00:09:58.529Z,7.35
2023-04-03T00:11:31.817Z,9.73
2023-04-03T00:13:04.589Z,10.00
2023-04-03T00:14:37.924Z,6.82
2023-04-03T00:16:12.678Z,4.20
2023-04-03T00:17:46.861Z,4.50
2023-04-03T00:19:20.573Z,3.75
2023-04-03T00:20:53.955Z,3.88
2023-04-03T00:22:27.870Z,4.30
2023-04-03T00:24:02.522Z,6.80
2023-04-03T00:25:34.731Z,3.47
2023-04-03T00:27:07.901Z,4.93
2023-04-03T00:28:41.279Z,3.00
2023-04-03T00:30:17.648Z,5.30
2023-04-03T00:31:51.047Z,9.73
2023-04-03T00:33:25.681Z,6.70
2023-04-03T00:34:59.112Z,4.70
2023-04-03T00:36:32.909Z,3.20
2023-04-03T00:38:05.618Z,8.20
2023-04-03T00:39:40.481Z,5.50
2023-04-03T00:41:13.664Z,6.43
2023-04-03T00:42:48.491Z,7.68
2023-04-03T00:44:23.693Z,4.82
2023-04-03T00:45:59.102Z,3.63
2023-04-03T00:47:33.491Z,4.18
2023-04-03T00:49:08.467Z,4.03
2023-04-03T00:50:42.711Z,7.07
2023-04-03T00:52:19.795Z,4.65
2023-04-03T00:53:57.625Z,6.10
2023-04-03T00:55:32.890Z,3.90
2023-04-03T00:57:08.585Z,4.35
2023-04-03T00:58:45.587Z,4.07
2023-04-03T01:00:24.114Z,3.33
2023-04-03T01:01:58.422Z,3.78
2023-04-03T01:03:32.616Z,3.17
2023-04-03T01:05:07.764Z,5.53
2023-04-03T01:06:41.058Z,3.20
2023-04-03T01:08:15.408Z,6.38
2023-04-03T01:09:49.481Z,4.78
2023-04-03T01:11:24.911Z,3.20
2023-04-03T01:12:58.707Z,3.92
2023-04-03T01:14:32.053Z,2.38
2023-04-03T01:16:06.536Z,3.42
2023-04-03T01:17:40.871Z,3.78
2023-04-03T01:19:19.330Z,3.00
2023-04-03T01:21:13.579Z,3.45
2023-04-03T01:22:54.785Z,12.10
2023-04-03T01:24:35.244Z,57.92
2023-04-03T01:26:12.769Z,31.42
2023-04-03T01:27:47.441Z,13.63
2023-04-03T01:29:21.322Z,6.22
2023-04-03T01:31:02.800Z,5.63
2023-04-03T01:32:39.762Z,3.55
2023-04-03T01:34:12.369Z,3.70
2023-04-03T01:35:45.660Z,3.70
2023-04-03T01:37:19.646Z,4.72
2023-04-03T01:38:53.497Z,3.60
2023-04-03T01:40:26.632Z,5.63
2023-04-03T01:42:01.390Z,6.78
2023-04-03T01:43:42.805Z,7.82
2023-04-03T01:45:16.403Z,6.53
2023-04-03T01:46:49.626Z,11.68
2023-04-03T01:48:24.386Z,8.50
2023-04-03T01:49:57.692Z,4.88
2023-04-03T01:51:31.288Z,4.15
2023-04-03T01:53:03.557Z,3.50
2023-04-03T01:54:36.755Z,6.50
2023-04-03T01:56:09.209Z,4.80
2023-04-03T01:57:42.910Z,3.30
2023-04-03T01:59:18.158Z,2.78
2023-04-03T02:00:51.823Z,5.32
2023-04-03T02:02:26.328Z,5.25
2023-04-03T02:04:01.286Z,3.55
2023-04-03T02:05:34.974Z,5.35
2023-04-03T02:07:08.447Z,11.80
2023-04-03T02:08:41.442Z,8.07
2023-04-03T02:10:15.959Z,7.75
2023-04-03T02:11:49.135Z,6.53
2023-04-03T02:13:21.576Z,3.50
2023-04-03T02:14:55.096Z,3.67
2023-04-03T02:16:29.873Z,6.38
2023-04-03T02:18:02.094Z,3.42
2023-04-03T02:19:42.438Z,4.78
2023-04-03T02:21:15.738Z,3.25
2023-04-03T02:22:49.565Z,7.85
2023-04-03T02:24:22.824Z,6.45
2023-04-03T02:26:04.174Z,6.55
2023-04-03T02:27:37.484Z,6.00
2023-04-03T02:29:11.106Z,7.55
2023-04-03T02:30:44.356Z,5.30
2023-04-03T02:32:17.928Z,8.40
2023-04-03T02:33:51.218Z,4.00
2023-04-03T02:35:26.903Z,4.13
2023-04-03T02:37:02.524Z,2.85
2023-04-03T02:38:36.327Z,5.55
2023-04-03T02:40:10.639Z,4.28
2023-04-03T02:41:44.322Z,3.72
2023-04-03T02:43:23.417Z,4.45
2023-04-03T02:44:58.166Z,5.80
2023-04-03T02:46:32.050Z,5.22
2023-04-03T02:48:06.093Z,4.75
2023-04-03T02:49:38.411Z,5.85
2023-04-03T02:51:13.027Z,7.35
2023-04-03T02:52:48.960Z,4.00
2023-04-03T02:54:24.287Z,6.25
2023-04-03T02:56:00.669Z,5.57
2023-04-03T02:57:33.976Z,6.97
2023-04-03T02:59:08.017Z,8.45
2023-04-03T03:00:44.474Z,9.60
2023-04-03T03:02:21.009Z,9.30
2023-04-03T03:03:54.210Z,6.45
2023-04-03T03:05:28.637Z,7.22
2023-04-03T03:07:03.618Z,11.45
2023-04-03T03:08:37.095Z,17.05
2023-04-03T03:10:11.558Z,8.23
2023-04-03T03:11:45.235Z,106.05
2023-04-03T03:13:18.530Z,24.70
2023-04-03T03:14:51.691Z,8.75
2023-04-03T03:16:25.269Z,11.10
2023-04-03T03:17:59.080Z,14.60
2023-04-03T03:19:33.658Z,15.30
2023-04-03T03:21:06.095Z,10.57
2023-04-03T03:22:47.150Z,12.07
2023-04-03T03:24:23.857Z,16.17
2023-04-03T03:25:58.626Z,17.65
2023-04-03T03:27:31.897Z,7.38
2023-04-03T03:29:05.556Z,3.75
2023-04-03T03:30:41.438Z,4.85
2023-04-03T03:32:16.035Z,12.25
2023-04-03T03:33:49.750Z,29.88
2023-04-03T03:35:23.174Z,4.35
2023-04-03T03:36:56.431Z,4.40
2023-04-03T03:38:31.664Z,3.03
2023-04-03T03:40:07.198Z,3.53
2023-04-03T03:41:41.604Z,3.40
2023-04-03T03:43:16.764Z,2.80
2023-04-03T03:44:50.105Z,6.03
2023-04-03T03:46:23.688Z,8.45
2023-04-03T03:47:56.552Z,9.88
2023-04-03T03:49:30.796Z,8.07
2023-04-03T03:51:04.225Z,8.27
2023-04-03T03:52:41.719Z,9.60
2023-04-03T03:54:16.803Z,5.43
2023-04-03T03:55:50.763Z,5.95
2023-04-03T03:57:27.988Z,10.73
2023-04-03T03:59:01.478Z,11.27
2023-04-03T04:00:34.039Z,15.70
2023-04-03T04:02:07.894Z,15.07
2023-04-03T04:03:41.483Z,14.38
2023-04-03T04:05:16.747Z,17.92
2023-04-03T04:06:50.169Z,13.65
2023-04-03T04:08:24.131Z,9.63
2023-04-03T04:09:59.060Z,13.02
2023-04-03T04:11:33.565Z,18.42
2023-04-03T04:13:07.491Z,15.80
2023-04-03T04:14:41.464Z,13.35
2023-04-03T04:16:16.266Z,12.70
2023-04-03T04:17:50.332Z,9.07
2023-04-03T04:19:23.822Z,10.00
2023-04-03T04:20:57.222Z,7.22
2023-04-03T04:22:30.742Z,16.05
2023-04-03T04:24:04.390Z,11.60
2023-04-03T04:25:39.318Z,12.18
2023-04-03T04:27:13.536Z,17.50
2023-04-03T04:28:47.078Z,9.07
2023-04-03T04:30:19.705Z,26.65
2023-04-03T04:31:55.367Z,11.00
2023-04-03T04:33:29.805Z,18.02
2023-04-03T04:35:06.832Z,11.48
2023-04-03T04:36:42.573Z,11.20
2023-04-03T04:38:15.957Z,28.35
2023-04-03T04:39:49.310Z,30.63
2023-04-03T04:41:24.380Z,31.73
2023-04-03T04:42:58.465Z,33.22
2023-04-03T04:44:31.751Z,25.08
2023-04-03T04:46:07.166Z,23.15
2023-04-03T04:47:44.902Z,18.67
2023-04-03T04:49:18.256Z,25.50
2023-04-03T04:50:51.760Z,25.17
2023-04-03T04:52:25.203Z,18.95
2023-04-03T04:53:58.453Z,20.55
2023-04-03T04:55:32.128Z,30.30
2023-04-03T04:57:06.960Z,22.98
2023-04-03T04:58:41.164Z,18.00
2023-04-03T05:00:16.429Z,21.27
2023-04-03T05:01:50.080Z,17.58
2023-04-03T05:03:23.907Z,23.23
2023-04-03T05:04:57.501Z,13.98
2023-04-03T05:06:36.320Z,14.32
2023-04-03T05:08:13.688Z,11.07
2023-04-03T05:09:48.725Z,9.77
2023-04-03T05:11:22.856Z,15.57
2023-04-03T05:13:00.613Z,9.05
2023-04-03T05:14:33.929Z,7.95
2023-04-03T05:16:10.907Z,8.70
2023-04-03T05:17:44.407Z,11.60
2023-04-03T05:19:20.100Z,13.45
2023-04-03T05:20:53.375Z,14.73
2023-04-03T05:22:27.288Z,20.63
2023-04-03T05:24:04.700Z,18.42
2023-04-03T05:25:40.294Z,24.08
2023-04-03T05:27:13.793Z,25.35
2023-04-03T05:28:52.103Z,24.35
2023-04-03T05:30:26.841Z,25.13
2023-04-03T05:32:00.124Z,23.38
2023-04-03T05:33:34.410Z,21.30
2023-04-03T05:35:08.952Z,25.60
2023-04-03T05:36:43.375Z,24.05
2023-04-03T05:38:17.692Z,18.50
2023-04-03T05:39:51.396Z,23.08
2023-04-03T05:41:25.172Z,19.70
2023-04-03T05:42:58.956Z,16.42
2023-04-03T05:44:37.136Z,17.13
2023-04-03T05:46:13.379Z,15.07
2023-04-03T05:47:48.491Z,7.35
2023-04-03T05:49:22.100Z,8.80
2023-04-03T05:50:57.164Z,12.68
2023-04-03T05:52:36.678Z,15.73
2023-04-03T05:54:15.820Z,15.63
2023-04-03T05:55:49.962Z,16.63
2023-04-03T05:57:23.776Z,11.57
2023-04-03T05:58:57.491Z,6.43
2023-04-03T06:00:32.257Z,5.80
2023-04-03T06:02:09.214Z,8.52
2023-04-03T06:03:43.286Z,10.45
2023-04-03T06:05:17.097Z,8.70
2023-04-03T06:06:53.350Z,12.32
2023-04-03T06:08:27.062Z,15.10
2023-04-03T06:10:00.446Z,11.75
2023-04-03T06:11:33.652Z,14.57
2023-04-03T06:13:07.141Z,12.82
2023-04-03T06:14:40.671Z,16.80
2023-04-03T06:16:17.285Z,17.67
2023-04-03T06:17:50.586Z,18.77
2023-04-03T06:19:25.059Z,113.13
2023-04-03T06:21:04.174Z,27.67
2023-04-03T06:22:37.421Z,18.80
2023-04-03T06:24:16.762Z,24.30
2023-04-03T06:25:50.224Z,13.02
2023-04-03T06:27:23.590Z,10.43
2023-04-03T06:28:57.147Z,10.02
2023-04-03T06:30:30.290Z,12.82
2023-04-03T06:32:05.115Z,22.27
2023-04-03T06:33:38.415Z,17.23
2023-04-03T06:35:11.922Z,18.33
2023-04-03T06:36:46.087Z,13.52
2023-04-03T06:38:20.184Z,19.98
2023-04-03T06:39:54.028Z,20.08
2023-04-03T06:41:27.782Z,26.40
2023-04-03T06:43:00.955Z,20.52
2023-04-03T06:44:35.535Z,24.80
2023-04-03T06:46:09.355Z,19.08
2023-04-03T06:47:44.004Z,18.08
2023-04-03T06:49:17.425Z,21.80
2023-04-03T06:50:50.733Z,22.60
2023-04-03T06:52:24.213Z,16.00
2023-04-03T06:54:00.745Z,16.90
2023-04-03T06:55:33.947Z,14.77
2023-04-03T06:57:07.208Z,22.52
2023-04-03T06:58:40.792Z,21.40
2023-04-03T07:00:15.864Z,27.25
2023-04-03T07:01:50.057Z,17.13
2023-04-03T07:03:24.815Z,20.27
2023-04-03T07:04:58.624Z,18.77
2023-04-03T07:06:32.888Z,17.38
2023-04-03T07:08:06.695Z,15.65
2023-04-03T07:09:39.867Z,27.33
2023-04-03T07:11:15.210Z,16.05
2023-04-03T07:12:48.530Z,18.85
2023-04-03T07:14:22.210Z,15.88
2023-04-03T07:15:55.552Z,11.35
2023-04-03T07:17:29.293Z,13.85
2023-04-03T07:19:04.008Z,13.38
2023-04-03T07:20:37.382Z,12.77
2023-04-03T07:22:12.107Z,13.65
2023-04-03T07:23:45.973Z,15.05
2023-04-03T07:25:19.263Z,16.95
2023-04-03T07:26:53.114Z,16.48
2023-04-03T07:28:26.986Z,26.88
2023-04-03T07:30:00.579Z,17.80
2023-04-03T07:31:34.926Z,15.98
2023-04-03T07:33:08.268Z,14.57
2023-04-03T07:34:43.114Z,14.30
2023-04-03T07:36:19.252Z,15.80
2023-04-03T07:37:52.477Z,27.70
2023-04-03T07:39:25.878Z,15.55
2023-04-03T07:40:59.175Z,17.17
2023-04-03T07:42:32.795Z,13.27
2023-04-03T07:44:06.824Z,19.73
2023-04-03T07:45:40.618Z,14.63
2023-04-03T07:47:15.337Z,14.00
2023-04-03T07:48:48.782Z,13.38
2023-04-03T07:50:23.515Z,11.20
2023-04-03T07:51:56.718Z,15.10
2023-04-03T07:53:29.955Z,14.95
2023-04-03T07:55:03.418Z,11.73
2023-04-03T07:56:36.654Z,13.13
2023-04-03T07:58:09.850Z,14.82
2023-04-03T07:59:43.769Z,11.50
2023-04-03T08:01:17.488Z,15.68
2023-04-03T08:02:52.598Z,10.63
2023-04-03T08:04:27.289Z,12.32
2023-04-03T08:06:09.204Z,11.10
2023-04-03T08:07:45.758Z,10.23
2023-04-03T08:09:19.726Z,9.40
2023-04-03T08:10:54.254Z,11.80
2023-04-03T08:12:29.594Z,8.90
2023-04-03T08:14:03.725Z,8.23
2023-04-03T08:15:38.028Z,8.63
2023-04-03T08:17:12.813Z,12.30
2023-04-03T08:18:46.475Z,9.93
2023-04-03T08:20:20.066Z,9.55
2023-04-03T08:21:54.730Z,3.50
2023-04-03T08:23:28.119Z,7.15
2023-04-03T08:25:02.593Z,4.70
2023-04-03T08:26:36.281Z,3.10
2023-04-03T08:28:09.519Z,4.20
2023-04-03T08:29:42.703Z,2.38
2023-04-03T08:31:19.518Z,5.10
2023-04-03T08:32:53.223Z,3.28
2023-04-03T08:34:26.411Z,2.83
2023-04-03T08:35:59.656Z,2.40
2023-04-03T08:37:37.348Z,6.40
2023-04-03T08:39:10.841Z,2.58
2023-04-03T08:40:44.235Z,3.17
2023-04-03T08:42:24.891Z,3.75
2023-04-03T08:44:05.646Z,5.22
2023-04-03T08:45:46.465Z,2.92
2023-04-03T08:47:27.239Z,6.05
2023-04-03T08:49:01.433Z,1.42
2023-04-03T08:50:40.186Z,5.57
2023-04-03T08:52:16.917Z,4.30
2023-04-03T08:54:00.576Z,6.90
2023-04-03T08:55:37.412Z,3.70
2023-04-03T08:57:14.634Z,3.50
2023-04-03T08:58:51.478Z,2.20
2023-04-03T09:00:26.721Z,2.78
2023-04-03T09:02:05.716Z,2.53
2023-04-03T09:03:42.279Z,3.15
2023-04-03T09:05:18.079Z,3.60
2023-04-03T09:06:56.639Z,2.92
2023-04-03T09:08:32.508Z,1.92
2023-04-03T09:10:08.132Z,1.08
2023-04-03T09:11:51.532Z,1.35
2023-04-03T09:13:32.782Z,1.73
2023-04-03T09:15:20.061Z,1.92
2023-04-03T09:17:01.369Z,2.08
2023-04-03T09:18:40.902Z,4.80
2023-04-03T09:20:24.921Z,6.55
2023-04-03T09:22:00.349Z,2.15
2023-04-03T09:23:40.815Z,1.48
2023-04-03T09:25:19.191Z,3.55
2023-04-03T09:27:00.197Z,1.25
2023-04-03T09:28:43.052Z,5.80
2023-04-03T09:30:24.590Z,2.33
2023-04-03T09:32:01.848Z,3.65
2023-04-03T09:33:38.022Z,1.58
2023-04-03T09:35:27.313Z,4.82
2023-04-03T09:37:10.044Z,2.38
2023-04-03T09:38:43.349Z,2.17
2023-04-03T09:40:40.400Z,4.28
2023-04-03T09:42:21.626Z,2.05
2023-04-03T09:43:56.899Z,2.22
2023-04-03T09:45:32.800Z,2.28
2023-04-03T09:47:21.699Z,2.95
2023-04-03T09:49:08.160Z,3.47
2023-04-03T09:51:00.222Z,2.13
2023-04-03T09:52:34.539Z,3.47
2023-04-03T09:54:38.785Z,2.58
2023-04-03T09:56:24.316Z,1.55
2023-04-03T09:58:00.245Z,4.13
2023-04-03T09:59:34.630Z,2.20
2023-04-03T10:01:08.137Z,5.88
2023-04-03T10:02:44.123Z,3.50
2023-04-03T10:04:18.982Z,1.30
2023-04-03T10:05:55.530Z,5.28
2023-04-03T10:07:31.834Z,2.17
2023-04-03T10:09:07.535Z,1.48
2023-04-03T10:10:41.453Z,3.72
2023-04-03T10:12:22.436Z,2.85
2023-04-03T10:14:00.798Z,2.70
2023-04-03T10:15:42.351Z,2.00
2023-04-03T10:17:25.613Z,4.38
2023-04-03T10:19:33.613Z,5.13
2023-04-03T10:21:24.667Z,2.10
2023-04-03T10:23:14.549Z,2.33
2023-04-03T10:24:58.871Z,1.95
2023-04-03T10:26:39.775Z,1.60
2023-04-03T10:28:22.380Z,1.35
2023-04-03T10:30:02.246Z,2.13
2023-04-03T10:31:42.659Z,3.22
2023-04-03T10:33:42.301Z,1.63
2023-04-03T10:35:27.307Z,1.40
2023-04-03T10:37:08.586Z,2.47
2023-04-03T10:38:49.351Z,3.38
2023-04-03T10:40:34.021Z,5.18
2023-04-03T10:42:17.674Z,1.63
2023-04-03T10:44:05.607Z,2.00
2023-04-03T10:45:53.758Z,1.10
2023-04-03T10:47:36.040Z,1.48
2023-04-03T10:49:23.867Z,4.70
2023-04-03T10:51:08.972Z,2.80
2023-04-03T10:52:50.012Z,2.67
2023-04-03T10:54:28.323Z,7.60
2023-04-03T10:56:07.789Z,3.25
2023-04-03T10:57:42.801Z,2.20
2023-04-03T10:59:25.201Z,1.48
2023-04-03T11:01:05.115Z,3.55
2023-04-03T11:02:41.862Z,1.40
2023-04-03T11:04:17.464Z,1.67
2023-04-03T11:05:54.789Z,1.10
2023-04-03T11:07:32.760Z,1.48
2023-04-03T11:09:10.159Z,0.60
2023-04-03T11:10:47.282Z,2.35
2023-04-03T11:12:27.215Z,1.08
2023-04-03T11:14:05.349Z,1.88
2023-04-03T11:15:40.260Z,2.63
2023-04-03T11:17:24.345Z,2.50
2023-04-03T11:19:02.428Z,3.70
2023-04-03T11:20:38.899Z,1.20
2023-04-03T11:22:18.417Z,1.95
2023-04-03T11:23:53.584Z,6.03
2023-04-03T11:25:28.037Z,5.88
2023-04-03T11:27:04.903Z,2.35
2023-04-03T11:28:39.094Z,4.90
2023-04-03T11:30:20.309Z,2.95
2023-04-03T11:32:21.652Z,2.25
2023-04-03T11:34:07.398Z,2.53
2023-04-03T11:35:46.396Z,2.08
2023-04-03T11:37:27.326Z,1.92
2023-04-03T11:39:03.919Z,2.08
2023-04-03T11:40:41.611Z,1.02
2023-04-03T11:42:27.437Z,3.28
2023-04-03T11:44:03.474Z,3.03
2023-04-03T11:45:54.711Z,9.27
2023-04-03T11:47:49.765Z,1.40
2023-04-03T11:50:08.911Z,2.30
2023-04-03T11:51:45.833Z,1.10
2023-04-03T11:53:36.932Z,2.80
2023-04-03T11:55:44.696Z,2.88
2023-04-03T11:57:49.038Z,1.88
2023-04-03T11:59:26.939Z,3.40
2023-04-03T12:01:06.257Z,8.13
2023-04-03T12:04:19.202Z,2.42
2023-04-03T12:05:53.952Z,3.33
2023-04-03T12:07:27.293Z,3.28
2023-04-03T12:08:59.558Z,2.67
2023-04-03T12:10:33.027Z,1.88
2023-04-03T12:12:30.009Z,2.67
2023-04-03T12:14:16.596Z,1.15
2023-04-03T12:16:00.985Z,5.18
2023-04-03T12:17:35.663Z,1.70
2023-04-03T12:19:44.614Z,3.92
2023-04-03T12:21:19.658Z,2.17
2023-04-03T12:23:25.537Z,2.13
2023-04-03T12:24:59.109Z,6.50
2023-04-03T12:26:47.678Z,3.47
2023-04-03T12:28:23.055Z,4.63
2023-04-03T12:30:06.812Z,5.13
2023-04-03T12:31:48.754Z,2.63
2023-04-03T12:33:31.692Z,2.55
2023-04-03T12:35:17.160Z,2.92
2023-04-03T12:37:03.114Z,2.13
2023-04-03T12:39:04.380Z,1.80
2023-04-03T12:40:46.075Z,1.17
2023-04-03T12:42:46.902Z,1.13
2023-04-03T12:44:45.420Z,1.55
2023-04-03T12:46:22.304Z,1.10
2023-04-03T12:47:57.217Z,5.85
2023-04-03T12:49:39.434Z,1.10
2023-04-03T12:51:16.924Z,1.85
2023-04-03T12:52:58.962Z,2.08
2023-04-03T12:54:37.475Z,1.20
2023-04-03T12:56:26.142Z,2.80
2023-04-03T12:58:00.446Z,2.40
2023-04-03T12:59:33.831Z,1.40
2023-04-03T13:01:13.193Z,2.15
2023-04-03T13:02:47.513Z,1.88
2023-04-03T13:04:21.962Z,1.52
2023-04-03T13:05:57.941Z,2.03
2023-04-03T13:07:34.728Z,3.83
2023-04-03T13:09:23.418Z,5.72
2023-04-03T13:11:03.850Z,6.70
2023-04-03T13:12:37.532Z,10.63
2023-04-03T13:14:18.418Z,11.40
2023-04-03T13:15:54.205Z,5.75
2023-04-03T13:17:29.002Z,7.63
2023-04-03T13:19:02.363Z,7.93
2023-04-03T13:20:39.279Z,4.45
2023-04-03T13:22:26.630Z,3.28
2023-04-03T13:25:45.164Z,3.35
2023-04-03T13:27:19.125Z,5.25
2023-04-03T13:28:53.937Z,2.78
2023-04-03T13:30:31.903Z,10.88
2023-04-03T13:32:07.275Z,7.28
2023-04-03T13:33:56.519Z,6.07
2023-04-03T13:35:39.295Z,6.60
2023-04-03T13:37:23.946Z,3.92
2023-04-03T13:39:02.967Z,5.85
2023-04-03T13:40:49.097Z,4.50
2023-04-03T13:42:27.662Z,6.38
2023-04-03T13:44:20.943Z,8.30
2023-04-03T13:46:06.246Z,8.35
2023-04-03T13:47:42.545Z,4.10
2023-04-03T13:49:23.755Z,4.20
2023-04-03T13:51:01.013Z,10.60
2023-04-03T13:52:37.349Z,10.27
2023-04-03T13:54:21.120Z,11.82
2023-04-03T13:56:01.829Z,12.45
2023-04-03T13:57:36.621Z,11.20
2023-04-03T13:59:26.110Z,6.68
2023-04-03T14:01:08.489Z,9.43
2023-04-03T14:02:41.813Z,11.07
2023-04-03T14:04:20.360Z,13.25
2023-04-03T14:05:54.456Z,13.63
2023-04-03T14:07:28.197Z,17.88
2023-04-03T14:09:01.495Z,10.70
2023-04-03T14:10:34.832Z,10.55
2023-04-03T14:12:24.266Z,11.48
2023-04-03T14:14:12.720Z,17.05
2023-04-03T14:15:46.949Z,13.63
2023-04-03T14:17:24.798Z,15.20
2023-04-03T14:18:59.383Z,12.02
2023-04-03T14:20:32.914Z,16.17
2023-04-03T14:22:16.291Z,18.55
2023-04-03T14:23:50.783Z,23.15
2023-04-03T14:25:24.943Z,21.75
2023-04-03T14:26:59.891Z,19.40
2023-04-03T14:28:34.672Z,16.73
2023-04-03T14:30:14.945Z,12.30
2023-04-03T14:31:55.494Z,14.02
2023-04-03T14:33:35.958Z,8.05
2023-04-03T14:35:09.911Z,5.20
2023-04-03T14:36:44.989Z,16.92
2023-04-03T14:38:26.401Z,11.38
2023-04-03T14:40:02.081Z,13.50
2023-04-03T14:41:35.411Z,22.95
2023-04-03T14:43:12.078Z,12.63
2023-04-03T14:44:45.606Z,11.73
2023-04-03T14:46:26.538Z,11.07
2023-04-03T14:48:02.342Z,11.35
2023-04-03T14:49:37.636Z,15.15
2023-04-03T14:51:16.194Z,13.80
2023-04-03T14:52:51.270Z,14.68
2023-04-03T14:54:28.922Z,17.95
2023-04-03T14:56:02.663Z,16.60
2023-04-03T14:57:36.483Z,17.35
2023-04-03T14:59:13.693Z,19.50
2023-04-03T15:00:47.885Z,21.08
2023-04-03T15:02:31.026Z,13.93
2023-04-03T15:04:07.880Z,18.60
2023-04-03T15:05:41.536Z,17.75
2023-04-03T15:07:14.900Z,16.65
2023-04-03T15:08:49.154Z,19.55
2023-04-03T15:10:25.340Z,16.40
2023-04-03T15:11:58.898Z,23.67
2023-04-03T15:13:32.586Z,19.08
2023-04-03T15:15:06.594Z,22.30
2023-04-03T15:16:40.081Z,22.38
2023-04-03T15:18:19.875Z,18.58
2023-04-03T15:19:56.734Z,53.90
2023-04-03T15:21:30.354Z,30.98
2023-04-03T15:23:05.568Z,20.30
2023-04-03T15:24:40.659Z,33.53
2023-04-03T15:26:14.400Z,35.97
2023-04-03T15:27:47.894Z,16.58
2023-04-03T15:29:21.654Z,24.15
2023-04-03T15:30:55.326Z,25.15
2023-04-03T15:32:32.466Z,35.05
2023-04-03T15:34:07.807Z,38.28
2023-04-03T15:35:41.913Z,60.45
2023-04-03T15:37:15.939Z,45.13
2023-04-03T15:38:49.902Z,47.05
2023-04-03T15:40:23.512Z,43.42
2023-04-03T15:42:00.848Z,37.95
2023-04-03T15:43:36.412Z,41.63
2023-04-03T15:45:10.954Z,29.35
2023-04-03T15:46:44.331Z,29.17
2023-04-03T15:48:17.883Z,15.50
2023-04-03T15:49:53.850Z,14.00
2023-04-03T15:51:27.511Z,13.75
2023-04-03T15:53:02.614Z,11.40
2023-04-03T15:54:36.367Z,9.57
2023-04-03T15:56:10.987Z,11.05
2023-04-03T15:57:46.792Z,9.40
2023-04-03T15:59:20.890Z,8.90
2023-04-03T16:00:54.298Z,9.50
2023-04-03T16:02:28.943Z,4.72
2023-04-03T16:04:02.796Z,8.70
2023-04-03T16:05:39.225Z,9.88
2023-04-03T16:07:12.938Z,10.98
2023-04-03T16:08:48.613Z,20.80
2023-04-03T16:10:25.231Z,13.00
2023-04-03T16:11:59.302Z,91.38
2023-04-03T16:13:35.652Z,19.27
2023-04-03T16:15:10.802Z,19.63
2023-04-03T16:16:44.310Z,13.80
2023-04-03T16:18:19.559Z,14.50
2023-04-03T16:19:53.150Z,11.40
2023-04-03T16:21:30.469Z,10.23
2023-04-03T16:23:04.287Z,7.47
2023-04-03T16:24:43.302Z,8.98
2023-04-03T16:26:18.407Z,8.25
2023-04-03T16:27:52.194Z,7.22
2023-04-03T16:29:29.336Z,13.20
2023-04-03T16:31:04.532Z,20.17
2023-04-03T16:32:40.814Z,21.58
2023-04-03T16:34:15.556Z,30.30
2023-04-03T16:35:49.901Z,44.50
2023-04-03T16:37:28.868Z,44.15
2023-04-03T16:39:05.619Z,47.83
2023-04-03T16:40:39.964Z,36.75
2023-04-03T16:42:13.691Z,26.52
2023-04-03T16:43:51.233Z,34.40
2023-04-03T16:45:25.397Z,37.45
2023-04-03T16:47:00.175Z,34.90
2023-04-03T16:48:33.876Z,32.20
2023-04-03T16:50:11.647Z,40.45
2023-04-03T16:51:46.192Z,29.73
2023-04-03T16:53:20.890Z,29.45
2023-04-03T16:54:56.700Z,24.52
2023-04-03T16:56:33.032Z,24.02
2023-04-03T16:58:06.901Z,17.73
2023-04-03T16:59:40.594Z,18.15
2023-04-03T17:01:16.215Z,16.55
2023-04-03T17:02:49.535Z,18.67
2023-04-03T17:04:22.801Z,12.15
2023-04-03T17:05:56.304Z,14.52
2023-04-03T17:07:29.691Z,10.63
2023-04-03T17:09:04.627Z,13.93
2023-04-03T17:10:37.968Z,13.43
2023-04-03T17:12:12.284Z,16.80
2023-04-03T17:13:45.893Z,11.60
2023-04-03T17:15:21.016Z,10.70
2023-04-03T17:16:54.809Z,11.27
2023-04-03T17:18:30.031Z,10.70
2023-04-03T17:20:03.675Z,9.07
2023-04-03T17:21:37.773Z,15.35
2023-04-03T17:23:11.428Z,14.88
2023-04-03T17:24:47.356Z,9.73
2023-04-03T17:26:22.101Z,6.18
2023-04-03T17:27:55.631Z,10.88
2023-04-03T17:29:35.029Z,5.88
2023-04-03T17:31:28.783Z,10.63
2023-04-03T17:33:14.816Z,6.28
2023-04-03T17:35:01.536Z,8.32
2023-04-03T17:36:55.782Z,5.85
2023-04-03T17:38:42.775Z,4.00
2023-04-03T17:40:44.213Z,4.93
2023-04-03T17:42:39.177Z,7.90
2023-04-03T17:44:24.997Z,4.93
2023-04-03T17:46:07.108Z,6.93
2023-04-03T17:47:54.001Z,5.70
2023-04-03T17:49:40.036Z,4.10
2023-04-03T17:51:21.684Z,3.80
2023-04-03T17:53:09.024Z,24.30
2023-04-03T17:54:49.051Z,5.43
2023-04-03T17:56:36.951Z,7.05
2023-04-03T17:58:24.171Z,8.13
2023-04-03T18:00:11.185Z,5.88
2023-04-03T18:01:53.622Z,13.25
2023-04-03T18:03:41.125Z,7.90
2023-04-03T18:05:27.027Z,5.70
2023-04-03T18:07:09.718Z,5.47
2023-04-03T18:08:59.210Z,4.55
2023-04-03T18:10:39.133Z,3.47
2023-04-03T18:12:27.840Z,7.00
2023-04-03T18:14:17.377Z,5.93
2023-04-03T18:16:03.163Z,6.45
2023-04-03T18:17:48.883Z,9.25
2023-04-03T18:19:35.356Z,9.23
2023-04-03T18:21:27.839Z,6.65
2023-04-03T18:23:14.891Z,3.63
2023-04-03T18:25:02.044Z,6.82
2023-04-03T18:26:56.826Z,6.13
2023-04-03T18:28:55.823Z,4.55
2023-04-03T18:30:36.357Z,6.00
2023-04-03T18:32:31.883Z,7.53
2023-04-03T18:34:17.871Z,5.43
2023-04-03T18:36:06.107Z,4.75
2023-04-03T18:37:59.080Z,5.95
2023-04-03T18:39:58.799Z,2.00
2023-04-03T18:42:00.149Z,4.95
2023-04-03T18:43:54.858Z,4.95
2023-04-03T18:45:41.244Z,7.63
2023-04-03T18:47:37.004Z,10.38
2023-04-03T18:49:29.845Z,4.95
2023-04-03T18:51:10.492Z,7.70
2023-04-03T18:53:02.876Z,6.80
2023-04-03T18:54:49.872Z,9.00
2023-04-03T18:56:36.331Z,10.15
2023-04-03T18:58:29.966Z,7.07
2023-04-03T19:00:25.891Z,7.35
2023-04-03T19:02:06.237Z,10.57
2023-04-03T19:03:59.913Z,10.55
2023-04-03T19:05:53.879Z,6.60
2023-04-03T19:07:42.919Z,11.80
2023-04-03T19:09:36.091Z,8.55
2023-04-03T19:11:30.268Z,8.82
2023-04-03T19:13:09.635Z,10.52
2023-04-03T19:15:03.229Z,10.50
2023-04-03T19:17:04.052Z,12.52
2023-04-03T19:18:56.879Z,8.00
2023-04-03T19:20:36.462Z,7.13
2023-04-03T19:22:22.575Z,6.25
2023-04-03T19:24:07.875Z,9.80
2023-04-03T19:25:54.104Z,9.35
2023-04-03T19:27:41.616Z,7.18
2023-04-03T19:29:28.874Z,9.20
2023-04-03T19:31:10.702Z,6.75
2023-04-03T19:32:59.521Z,9.70
2023-04-03T19:34:45.872Z,7.65
2023-04-03T19:36:32.342Z,13.07
2023-04-03T19:38:24.991Z,5.78
2023-04-03T19:40:18.891Z,6.97
2023-04-03T19:42:06.810Z,9.13
2023-04-03T19:43:59.904Z,10.48
2023-04-03T19:45:59.996Z,10.63
2023-04-03T19:48:00.033Z,9.93
2023-04-03T19:49:54.938Z,18.50
2023-04-03T19:51:41.139Z,8.75
2023-04-03T19:53:36.479Z,7.45
2023-04-03T19:55:28.865Z,9.77
2023-04-03T19:57:28.858Z,8.57
2023-04-03T19:59:16.423Z,9.07
2023-04-03T20:01:08.929Z,6.72
2023-04-03T20:03:02.209Z,11.55
2023-04-03T20:04:48.021Z,8.27
2023-04-03T20:06:35.951Z,11.00
2023-04-03T20:08:22.112Z,8.88
2023-04-03T20:10:16.120Z,9.23
2023-04-03T20:12:04.901Z,9.63
2023-04-03T20:13:52.158Z,11.40
2023-04-03T20:15:48.110Z,8.75
2023-04-03T20:17:41.961Z,10.15
2023-04-03T20:19:28.330Z,8.73
2023-04-03T20:21:21.913Z,10.05
2023-04-03T20:23:17.972Z,7.90
2023-04-03T20:25:06.768Z,7.57
2023-04-03T20:27:01.188Z,9.07
2023-04-03T20:28:54.189Z,12.75
2023-04-03T20:30:41.216Z,10.32
2023-04-03T20:32:28.196Z,9.82
2023-04-03T20:34:16.026Z,10.63
2023-04-03T20:36:10.970Z,8.35
2023-04-03T20:38:04.154Z,7.68
2023-04-03T20:40:05.913Z,7.82
2023-04-03T20:41:59.008Z,6.30
2023-04-03T20:43:46.375Z,10.20
2023-04-03T20:45:25.957Z,13.73
2023-04-03T20:47:12.981Z,19.17
2023-04-03T20:48:59.761Z,11.38
2023-04-03T20:50:39.943Z,8.63
2023-04-03T20:52:25.933Z,6.82
2023-04-03T20:54:05.258Z,8.27
2023-04-03T20:56:00.966Z,9.07
2023-04-03T20:57:54.459Z,7.95
2023-04-03T20:59:42.560Z,8.40
2023-04-03T21:01:29.989Z,8.88
2023-04-03T21:03:16.233Z,6.70
2023-04-03T21:05:10.033Z,8.38
2023-04-03T21:07:33.027Z,6.75
2023-04-03T21:09:57.065Z,8.15
2023-04-03T21:12:27.156Z,8.88
2023-04-03T21:14:58.971Z,8.30
2023-04-03T21:16:51.985Z,7.72
2023-04-03T21:18:50.341Z,6.50
2023-04-03T21:20:44.966Z,8.57
2023-04-03T21:22:25.747Z,6.78
2023-04-03T21:24:15.326Z,6.28
2023-04-03T21:26:02.032Z,6.90
2023-04-03T21:28:01.935Z,5.90
2023-04-03T21:29:49.258Z,8.27
2023-04-03T21:32:06.973Z,5.78
2023-04-03T21:34:01.756Z,6.20
2023-04-03T21:35:49.073Z,7.00
2023-04-03T21:37:34.974Z,10.63
2023-04-03T21:39:21.717Z,5.65
2023-04-03T21:41:16.174Z,6.97
2023-04-03T21:43:01.242Z,6.75
2023-04-03T21:44:49.260Z,4.93
2023-04-03T21:46:36.171Z,7.05